createdAt,value
2023-05-23T00:04:58.386Z,19.74
2023-05-23T00:10:01.361Z,20.07
2023-05-23T00:15:08.682Z,19.91
2023-05-23T00:20:12.421Z,19.81
2023-05-23T00:25:15.216Z,19.86
2023-05-23T00:30:19.569Z,20.00
2023-05-23T00:35:23.650Z,20.04
2023-05-23T00:40:27.377Z,20.11
2023-05-23T00:45:31.529Z,20.13
2023-05-23T00:50:36.186Z,20.06
2023-05-23T00:55:39.804Z,20.10
2023-05-23T01:00:44.983Z,20.02
2023-05-23T01:05:47.959Z,19.75
2023-05-23T01:10:51.305Z,19.86
2023-05-23T01:16:04.515Z,19.77
2023-05-23T01:21:11.159Z,20.08
2023-05-23T01:26:34.994Z,20.09
2023-05-23T01:31:44.158Z,20.20
2023-05-23T01:36:50.738Z,19.89
2023-05-23T01:41:54.709Z,19.57
2023-05-23T01:46:59.349Z,19.37
2023-05-23T01:52:03.130Z,18.67
2023-05-23T01:57:07.238Z,18.30
2023-05-23T02:02:12.266Z,18.58
2023-05-23T02:07:15.090Z,18.22
2023-05-23T02:12:17.892Z,17.94
2023-05-23T02:17:24.233Z,17.94
2023-05-23T02:22:27.438Z,18.20
2023-05-23T02:27:30.243Z,18.05
2023-05-23T02:32:35.076Z,18.06
2023-05-23T02:37:38.181Z,17.80
2023-05-23T02:42:41.017Z,17.69
2023-05-23T02:47:45.767Z,17.63
2023-05-23T02:52:49.030Z,17.44
2023-05-23T02:57:56.857Z,17.57
2023-05-23T03:03:01.739Z,17.45
2023-05-23T03:08:05.351Z,17.77
2023-05-23T03:13:08.340Z,17.85
2023-05-23T03:18:13.171Z,17.86
2023-05-23T03:23:15.993Z,17.60
2023-05-23T03:28:21.009Z,17.56
2023-05-23T03:33:25.164Z,17.54
2023-05-23T03:38:29.083Z,17.13
2023-05-23T03:43:31.851Z,17.56
2023-05-23T03:48:37.771Z,17.55
2023-05-23T03:53:40.897Z,17.47
2023-05-23T03:58:43.677Z,17.43
2023-05-23T04:03:52.758Z,17.99
2023-05-23T04:08:56.216Z,17.72
2023-05-23T04:13:59.206Z,17.98
2023-05-23T04:19:05.888Z,17.98
2023-05-23T04:24:09.182Z,17.50
2023-05-23T04:29:12.631Z,17.89
2023-05-23T04:34:17.225Z,17.78
2023-05-23T04:39:20.536Z,17.57
2023-05-23T04:44:43.304Z,17.74
2023-05-23T04:49:54.020Z,17.42
2023-05-23T04:54:57.235Z,17.21
2023-05-23T05:00:01.117Z,17.58
2023-05-23T05:05:07.252Z,17.23
2023-05-23T05:10:16.829Z,17.36
2023-05-23T05:15:20.592Z,17.15
2023-05-23T05:20:29.567Z,17.40
2023-05-23T05:25:35.825Z,17.74
2023-05-23T05:30:39.282Z,17.63
2023-05-23T05:35:43.946Z,17.55
2023-05-23T05:40:47.452Z,17.99
2023-05-23T05:45:51.022Z,17.72
2023-05-23T05:50:55.652Z,17.98
2023-05-23T05:55:58.559Z,18.04
2023-05-23T06:01:01.525Z,18.13
2023-05-23T06:06:06.880Z,18.14
2023-05-23T06:11:09.932Z,18.24
2023-05-23T06:16:13.036Z,18.46
2023-05-23T06:21:18.095Z,18.35
2023-05-23T06:26:24.704Z,18.19
2023-05-23T06:31:28.571Z,18.21
2023-05-23T06:36:32.800Z,17.91
2023-05-23T06:41:35.647Z,18.05
2023-05-23T06:46:40.357Z,17.97
2023-05-23T06:51:45.325Z,17.90
2023-05-23T06:56:48.487Z,17.75
2023-05-23T07:01:51.894Z,17.57
2023-05-23T07:06:56.139Z,17.91
2023-05-23T07:11:59.173Z,17.48
2023-05-23T07:17:02.557Z,17.25
2023-05-23T07:22:06.926Z,17.51
2023-05-23T07:27:12.493Z,17.38
2023-05-23T07:32:15.662Z,17.69
2023-05-23T07:37:21.165Z,18.06
2023-05-23T07:42:24.220Z,18.09
2023-05-23T07:47:27.694Z,18.14
2023-05-23T07:52:32.313Z,17.94
2023-05-23T07:57:35.877Z,18.07
2023-05-23T08:07:43.221Z,17.78
2023-05-23T08:12:46.793Z,17.58
2023-05-23T08:17:56.887Z,17.71
2023-05-23T08:23:02.634Z,17.89
2023-05-23T08:28:05.980Z,18.06
2023-05-23T08:33:24.246Z,18.11
2023-05-23T08:38:31.932Z,17.57
2023-05-23T08:43:46.302Z,17.26
2023-05-23T08:48:56.695Z,17.31
2023-05-23T08:54:03.880Z,17.12
2023-05-23T08:59:07.031Z,17.14
2023-05-23T09:04:12.798Z,16.49
2023-05-23T09:09:36.487Z,16.76
2023-05-23T09:14:42.305Z,16.43
2023-05-23T09:19:46.988Z,16.71
2023-05-23T09:24:59.932Z,16.20
2023-05-23T09:30:08.024Z,16.33
2023-05-23T09:35:12.451Z,16.29
2023-05-23T09:40:17.789Z,16.41
2023-05-23T09:45:32.068Z,16.59
2023-05-23T09:50:36.824Z,16.56
2023-05-23T09:55:42.270Z,16.22
2023-05-23T10:00:47.493Z,16.28
2023-05-23T10:05:52.754Z,16.78
2023-05-23T10:11:33.991Z,16.93
2023-05-23T10:16:48.671Z,16.66
2023-05-23T10:21:56.339Z,16.27
2023-05-23T10:26:59.524Z,15.79
2023-05-23T10:32:05.660Z,16.07
2023-05-23T10:37:11.221Z,16.38
2023-05-23T10:42:19.242Z,16.34
2023-05-23T10:47:29.440Z,16.42
2023-05-23T10:52:40.955Z,16.86
2023-05-23T10:57:43.932Z,17.18
2023-05-23T11:03:01.121Z,17.29
2023-05-23T11:08:13.772Z,18.28
2023-05-23T11:13:16.676Z,17.58
2023-05-23T11:18:27.618Z,18.11
2023-05-23T11:23:41.945Z,18.44
2023-05-23T11:28:57.215Z,18.84
2023-05-23T11:34:02.687Z,18.19
2023-05-23T11:39:05.724Z,18.17
2023-05-23T11:44:14.695Z,18.44
2023-05-23T11:49:18.818Z,18.10
2023-05-23T11:54:24.336Z,18.40
2023-05-23T11:59:28.361Z,18.59
2023-05-23T12:04:32.678Z,18.78
2023-05-23T12:09:43.385Z,19.27
2023-05-23T12:14:46.523Z,18.70
2023-05-23T12:19:51.659Z,18.48
2023-05-23T12:24:55.383Z,19.12
2023-05-23T12:30:09.518Z,19.81
2023-05-23T12:35:15.941Z,19.46
2023-05-23T12:40:20.201Z,19.57
2023-05-23T12:45:25.185Z,20.23
2023-05-23T12:50:31.324Z,20.02
2023-05-23T12:55:34.253Z,19.67
2023-05-23T13:00:37.783Z,19.95
2023-05-23T13:05:42.203Z,20.39
2023-05-23T13:10:45.218Z,20.07
2023-05-23T13:15:50.529Z,18.67
2023-05-23T13:20:58.164Z,19.25
2023-05-23T13:26:00.950Z,18.91
2023-05-23T13:31:04.941Z,18.71
2023-05-23T13:36:09.389Z,19.46
2023-05-23T13:41:12.184Z,19.27
2023-05-23T13:46:16.221Z,19.27
2023-05-23T13:51:20.596Z,19.38
2023-05-23T13:56:24.378Z,20.01
2023-05-23T14:01:27.344Z,18.99
2023-05-23T14:06:32.902Z,19.72
2023-05-23T14:11:36.025Z,18.98
2023-05-23T14:16:38.921Z,20.05
2023-05-23T14:21:44.895Z,18.59
2023-05-23T14:26:47.983Z,18.73
2023-05-23T14:31:51.102Z,18.74
2023-05-23T14:36:55.731Z,18.65
2023-05-23T14:41:58.581Z,18.31
2023-05-23T14:47:01.630Z,18.03
2023-05-23T14:52:06.176Z,17.12
2023-05-23T14:57:09.386Z,17.57
2023-05-23T15:02:12.434Z,18.10
2023-05-23T15:07:18.255Z,18.53
2023-05-23T15:12:21.121Z,18.34
2023-05-23T15:17:26.569Z,17.71
2023-05-23T15:22:38.575Z,17.74
2023-05-23T15:27:45.190Z,18.04
2023-05-23T15:32:50.611Z,17.92
2023-05-23T15:37:54.884Z,17.55
2023-05-23T15:42:57.828Z,17.24
2023-05-23T15:48:00.768Z,17.39
2023-05-23T15:53:05.234Z,17.31
2023-05-23T15:58:09.429Z,17.22
2023-05-23T16:03:12.725Z,17.40
2023-05-23T16:08:18.134Z,16.97
2023-05-23T16:13:20.979Z,16.97
2023-05-23T16:18:24.197Z,16.86
2023-05-23T16:23:28.737Z,17.13
2023-05-23T16:28:31.603Z,17.23
2023-05-23T16:33:34.489Z,17.73
2023-05-23T16:38:38.836Z,17.18
2023-05-23T16:43:42.827Z,16.99
2023-05-23T16:48:45.982Z,17.01
2023-05-23T16:53:50.353Z,16.71
2023-05-23T16:58:53.274Z,16.76
2023-05-23T17:03:57.033Z,16.52
2023-05-23T17:09:01.632Z,15.95
2023-05-23T17:14:04.631Z,15.96
2023-05-23T17:19:07.856Z,16.16
2023-05-23T17:24:12.229Z,16.33
2023-05-23T17:29:17.186Z,16.28
2023-05-23T17:34:20.258Z,15.71
2023-05-23T17:39:25.220Z,16.19
2023-05-23T17:44:28.348Z,15.49
2023-05-23T17:49:31.321Z,15.30
2023-05-23T17:55:00.972Z,15.35
2023-05-23T18:00:04.074Z,15.20
2023-05-23T18:05:17.817Z,15.02
2023-05-23T18:10:22.291Z,15.16
2023-05-23T18:15:25.829Z,14.72
2023-05-23T18:20:28.816Z,14.95
2023-05-23T18:25:33.474Z,15.07
2023-05-23T18:30:36.723Z,15.13
2023-05-23T18:35:39.759Z,14.93
2023-05-23T18:40:44.496Z,14.80
2023-05-23T18:45:47.673Z,14.85
2023-05-23T18:50:51.281Z,14.86
2023-05-23T18:55:56.371Z,14.27
2023-05-23T19:01:03.708Z,14.46
2023-05-23T19:06:10.751Z,14.78
2023-05-23T19:12:07.529Z,14.24
2023-05-23T19:17:14.008Z,14.08
2023-05-23T19:22:55.022Z,13.90
2023-05-23T19:34:48.136Z,13.93
2023-05-23T19:39:52.576Z,13.62
2023-05-23T19:44:55.416Z,13.55
2023-05-23T19:49:58.410Z,13.50
2023-05-23T19:55:03.792Z,13.46
2023-05-23T20:00:09.789Z,13.39
2023-05-23T20:05:16.431Z,13.47
2023-05-23T20:10:21.019Z,13.58
2023-05-23T20:15:38.060Z,13.28
2023-05-23T20:20:42.847Z,13.31
2023-05-23T20:25:47.323Z,13.40
2023-05-23T20:30:50.333Z,13.50
2023-05-23T20:35:54.001Z,13.18
2023-05-23T20:41:01.505Z,12.92
2023-05-23T20:46:06.319Z,13.07
2023-05-23T20:51:09.451Z,13.14
2023-05-23T20:56:14.206Z,12.90
2023-05-23T21:01:17.186Z,12.92
2023-05-23T21:06:20.071Z,12.81
2023-05-23T21:11:24.855Z,12.92
2023-05-23T21:16:27.715Z,12.84
2023-05-23T21:21:30.490Z,12.82
2023-05-23T21:26:34.669Z,12.72
2023-05-23T21:31:41.951Z,12.76
2023-05-23T21:36:44.958Z,12.69
2023-05-23T21:41:49.114Z,12.81
2023-05-23T21:46:51.943Z,12.84
2023-05-23T21:51:55.105Z,12.80
2023-05-23T21:56:59.270Z,13.05
2023-05-23T22:02:02.145Z,12.66
2023-05-23T22:07:05.580Z,13.20
2023-05-23T22:12:10.535Z,13.03
2023-05-23T22:17:14.223Z,12.70
2023-05-23T22:22:17.032Z,12.75
2023-05-23T22:27:21.314Z,13.09
2023-05-23T22:32:24.611Z,12.66
2023-05-23T22:37:27.386Z,12.86
2023-05-23T22:42:31.507Z,12.77
2023-05-23T22:47:34.491Z,12.60
2023-05-23T22:52:38.562Z,12.57
2023-05-23T22:57:42.727Z,12.48
2023-05-23T23:02:46.646Z,12.82
2023-05-23T23:07:49.605Z,12.91
2023-05-23T23:12:54.069Z,12.93
2023-05-23T23:17:57.272Z,12.63
2023-05-23T23:23:00.143Z,12.69
2023-05-23T23:28:04.589Z,12.89
2023-05-23T23:33:07.370Z,12.66
2023-05-23T23:38:10.306Z,12.66
2023-05-23T23:43:14.518Z,12.69
2023-05-23T23:48:17.263Z,12.66
2023-05-23T23:53:21.379Z,12.99
2023-05-23T23:58:25.566Z,13.06
